Airfield :
LOGIN :

Register | Disclaimer

   EN    FR    IT 

 










Legend :    VFR   Marginal VFR   IFR   Intensive IFR   Very Intensive IFR
Visi :
Ceiling :
>= 8 km
>= 3000ft
5 to 8 km
1000 to 3000 ft
1500m to 5 km
500 to 1000 ft
800 to 1500m
200 to 500 ft
< 800m
< 200 ft
Symbols :   Thunderstorms  Fog  Heavy snow  Heavy precipitations  Wind > 20 kt
SIGMETs :     Misc.  Thunderstorms  Icing  Turbulence  Mountain Waves  Volcanic Ashes






- Airport Elevation : 502 ft
- IATA code : ORK


EICK - Cork

CURRENT METAR :
  • 181200Z 27020KT 9999 SCT018CB BKN024 11/08 Q0991 NOSIG

EXPIRED METARs :
  • 181130Z 27018KT 9999 SCT018CB SCT024 11/07 Q0991 NOSIG
  • 181100Z 27018KT 9999 FEW018CB SCT024 10/08 Q0991 NOSIG
  • 181030Z 26017KT 9999 FEW018CB BKN024 11/08 Q0990 NOSIG
  • 181000Z 23013KT 9999 FEW012 SCT018CB BKN023 10/08 Q0990 NOSIG
  • 180930Z 22014KT 9999 FEW012 SCT018CB BKN023 10/09 Q0990 NOSIG

TAF TAF EICK
Valid from the 18 at 12:00 until the 19 at 12:00 UTC


181100Z 1812/1912 26014KT 9999 SCT018 BKN025
TEMPO 1812/1815 28017G28KT
TEMPO 1812/1817 -SHRA SCT012 SCT018CB
BECMG 1815/1817 29012KT
BECMG 1821/1823 31008KT
TEMPO 1823/1902 4000 BR BKN012
TEMPO 1903/1908 3000 BR BKN004
BECMG 1910/1912 34012KT



MET'MAP, your aeronautical weather chart ! - Copyright ORBIFLY December 2007 - Disclaimer

ORBIFLY MET'MAP TEAM :

Programming & Development : Alexandra Zaïnal
Concept & Development : Baudouin d'Aumeries
Co-Development & Prog : Marc-Olivier Méhu
Technical & hardware support : Manuel Goepfert

Contact : metmap@orbifly.com




SOURCES & CREDITS :

   NOAA